Time;durP1;ratioP1;P1;durP2;ratioP2;P2;SDS_P1;SDS_P2;PMS_P1;PMS_P2;Temp;Humidity;BMP_temperature;BMP_pressure;BME280_temperature;BME280_humidity;BME280_pressure;Samples;Min_cycle;Max_cycle;Signal;HPM_P1;HPM_P2
2022/07/06 00:00:43;;;;;;;2.05;0.50;;;14.20;99.90;;;;;;5078895;28;20039;-70
2022/07/06 00:03:09;;;;;;;2.35;0.50;;;14.20;99.90;;;;;;5077561;28;20055;-70
2022/07/06 00:05:34;;;;;;;1.92;0.60;;;14.20;99.90;;;;;;5079882;28;20036;-70
2022/07/06 00:08:00;;;;;;;1.40;0.47;;;14.20;99.90;;;;;;5061558;28;20056;-70
2022/07/06 00:10:25;;;;;;;1.90;0.40;;;14.20;99.90;;;;;;5084724;28;20495;-70
2022/07/06 00:12:51;;;;;;;1.40;0.50;;;14.20;99.90;;;;;;5078189;28;20089;-70
2022/07/06 00:15:17;;;;;;;1.58;0.60;;;14.10;99.90;;;;;;5083262;28;20044;-70
2022/07/06 00:17:42;;;;;;;1.02;0.38;;;14.10;99.90;;;;;;5083512;28;20036;-70
2022/07/06 00:20:08;;;;;;;0.90;0.30;;;14.10;99.90;;;;;;5082314;28;20051;-70
2022/07/06 00:22:34;;;;;;;2.30;0.30;;;14.00;99.90;;;;;;5031398;28;20386;-70
2022/07/06 00:25:00;;;;;;;1.35;0.45;;;14.00;99.90;;;;;;5068033;28;20044;-71
2022/07/06 00:27:25;;;;;;;1.00;0.30;;;14.00;99.90;;;;;;5084021;28;21557;-71
2022/07/06 00:29:51;;;;;;;0.95;0.20;;;13.90;99.90;;;;;;5080664;28;20087;-70
2022/07/06 00:32:17;;;;;;;0.63;0.22;;;13.90;99.90;;;;;;5077600;28;20040;-70
2022/07/06 00:34:42;;;;;;;0.75;0.20;;;13.90;99.90;;;;;;5083191;28;20130;-70
2022/07/06 00:37:08;;;;;;;0.20;0.10;;;13.90;99.90;;;;;;5066168;28;20032;-70
2022/07/06 00:39:34;;;;;;;0.98;0.25;;;13.90;99.90;;;;;;5088576;28;20044;-71
2022/07/06 00:42:00;;;;;;;0.30;0.00;;;13.80;99.90;;;;;;5062568;28;20131;-70
2022/07/06 00:44:25;;;;;;;0.85;0.15;;;13.80;99.90;;;;;;5081589;28;20139;-70
2022/07/06 00:46:51;;;;;;;1.10;0.25;;;13.90;99.90;;;;;;5082957;28;20058;-70
2022/07/06 00:52:02;;;;;;;0.20;0.10;;;13.80;99.90;;;;;;5082099;28;20590;-70
2022/07/06 00:54:31;;;;;;;0.20;0.10;;;13.80;99.90;;;;;;5070519;28;20688;-70
2022/07/06 00:56:57;;;;;;;0.10;0.10;;;13.80;99.90;;;;;;5082820;28;20040;-70
2022/07/06 00:59:23;;;;;;;;;;;13.80;99.90;;;;;;5081525;28;20082;-70
2022/07/06 01:01:49;;;;;;;0.52;0.20;;;13.80;99.90;;;;;;5079043;28;19960;-70
2022/07/06 01:04:15;;;;;;;1.30;0.30;;;13.80;99.90;;;;;;5085839;28;20059;-70
2022/07/06 01:06:41;;;;;;;0.38;0.20;;;13.80;99.90;;;;;;5083908;28;20055;-70
2022/07/06 01:09:06;;;;;;;0.47;0.20;;;13.80;99.90;;;;;;5080962;28;20146;-70
2022/07/06 01:11:32;;;;;;;0.10;0.10;;;13.80;99.90;;;;;;5085336;28;20047;-70
2022/07/06 01:14:01;;;;;;;0.30;0.10;;;13.80;99.90;;;;;;5084927;28;20440;-70
2022/07/06 01:16:26;;;;;;;0.08;0.00;;;13.80;99.90;;;;;;5062470;28;20106;-70
2022/07/06 01:18:52;;;;;;;0.05;0.00;;;13.80;99.90;;;;;;5087311;28;20131;-70
2022/07/06 01:21:18;;;;;;;0.30;0.10;;;13.80;99.90;;;;;;5105095;28;20412;-70
2022/07/06 01:23:46;;;;;;;0.68;0.20;;;13.80;99.90;;;;;;5067711;28;20031;-70
2022/07/06 01:26:20;;;;;;;0.60;0.30;;;13.70;99.90;;;;;;5067986;28;20042;-70
2022/07/06 01:28:51;;;;;;;0.95;0.30;;;13.80;99.90;;;;;;5045428;28;20060;-70
2022/07/06 01:31:23;;;;;;;0.57;0.20;;;13.70;99.90;;;;;;5064814;28;20057;-70
2022/07/06 01:33:50;;;;;;;0.20;0.20;;;13.80;99.90;;;;;;5083466;28;20051;-70
2022/07/06 01:36:16;;;;;;;1.08;0.30;;;13.80;99.90;;;;;;5072263;28;20510;-70
2022/07/06 01:38:55;;;;;;;0.52;0.30;;;13.70;99.90;;;;;;5065335;28;20047;-70
2022/07/06 01:41:21;;;;;;;0.90;0.38;;;13.80;99.90;;;;;;5052394;28;20128;-70
2022/07/06 01:43:47;;;;;;;1.73;0.50;;;13.80;99.90;;;;;;5090248;28;20105;-70
2022/07/06 01:46:13;;;;;;;1.00;0.38;;;13.80;99.90;;;;;;5091171;28;20592;-70
2022/07/06 01:48:39;;;;;;;0.30;0.30;;;13.80;99.90;;;;;;5088430;28;20043;-70
2022/07/06 01:51:05;;;;;;;1.35;0.25;;;13.80;99.90;;;;;;5073182;28;20035;-70
2022/07/06 01:53:31;;;;;;;0.98;0.30;;;13.90;99.90;;;;;;5072599;28;20043;-70
2022/07/06 01:55:57;;;;;;;0.57;0.20;;;13.80;99.90;;;;;;5068289;28;20063;-71
2022/07/06 01:58:23;;;;;;;1.27;0.40;;;13.80;99.90;;;;;;5106049;28;20035;-70
2022/07/06 02:00:49;;;;;;;0.70;0.22;;;13.80;99.90;;;;;;5085727;28;20109;-71
2022/07/06 02:03:14;;;;;;;1.67;0.22;;;13.80;99.90;;;;;;5089117;28;20072;-71
2022/07/06 02:05:40;;;;;;;0.98;0.40;;;13.80;99.90;;;;;;5088030;28;20039;-71
2022/07/06 02:08:06;;;;;;;0.85;0.20;;;13.80;99.90;;;;;;5069528;28;20039;-71
2022/07/06 02:10:32;;;;;;;0.85;0.40;;;13.80;99.90;;;;;;5088288;28;20052;-71
2022/07/06 02:12:58;;;;;;;0.80;0.30;;;13.80;99.90;;;;;;5089302;28;20105;-71
2022/07/06 02:15:23;;;;;;;0.60;0.22;;;13.80;99.90;;;;;;5063874;28;20050;-71
2022/07/06 02:17:49;;;;;;;1.77;0.47;;;13.80;99.90;;;;;;5086833;28;20071;-71
2022/07/06 02:20:15;;;;;;;0.55;0.22;;;13.70;99.90;;;;;;5084286;28;20049;-71
2022/07/06 02:22:40;;;;;;;0.60;0.10;;;13.70;99.90;;;;;;5086317;28;20075;-71
2022/07/06 02:25:06;;;;;;;0.40;0.20;;;13.70;99.90;;;;;;5086960;28;20040;-71
2022/07/06 02:27:32;;;;;;;0.57;0.28;;;13.70;99.90;;;;;;5088253;28;20521;-71
2022/07/06 02:29:58;;;;;;;0.10;0.10;;;13.60;99.90;;;;;;5054688;28;20044;-71
2022/07/06 02:32:23;;;;;;;0.20;0.10;;;13.60;99.90;;;;;;5084509;28;20902;-71
2022/07/06 02:34:49;;;;;;;2.45;0.55;;;13.50;99.90;;;;;;5084878;28;20127;-71
2022/07/06 02:37:15;;;;;;;3.22;0.50;;;13.50;99.90;;;;;;5087898;28;20045;-71
2022/07/06 02:39:40;;;;;;;1.45;0.55;;;13.40;99.90;;;;;;5085473;28;20506;-71
2022/07/06 02:42:06;;;;;;;1.73;0.40;;;13.30;99.90;;;;;;5085556;28;20070;-71
2022/07/06 02:44:32;;;;;;;0.52;0.30;;;13.30;99.90;;;;;;5106291;27;20052;-71
2022/07/06 02:46:57;;;;;;;1.00;0.30;;;13.20;99.90;;;;;;5089859;28;20656;-71
2022/07/06 02:49:23;;;;;;;1.25;0.40;;;13.20;99.90;;;;;;5062857;28;20043;-71
2022/07/06 02:51:49;;;;;;;0.52;0.17;;;13.10;99.90;;;;;;5052699;28;20127;-71
2022/07/06 02:54:14;;;;;;;0.28;0.17;;;13.10;99.90;;;;;;5085813;28;20035;-71
2022/07/06 02:56:40;;;;;;;1.42;0.38;;;13.10;99.90;;;;;;5067510;28;20134;-71
2022/07/06 02:59:06;;;;;;;1.38;0.40;;;13.00;99.90;;;;;;5088215;28;20041;-71
2022/07/06 03:01:31;;;;;;;0.95;0.35;;;13.00;99.90;;;;;;5090430;28;20078;-71
2022/07/06 03:03:57;;;;;;;1.17;0.30;;;13.00;99.90;;;;;;5066824;28;20122;-71
2022/07/06 03:06:23;;;;;;;0.98;0.35;;;12.90;99.90;;;;;;5071568;28;20344;-71
2022/07/06 03:08:48;;;;;;;0.70;0.28;;;12.90;99.90;;;;;;5069893;28;20151;-71
2022/07/06 03:11:14;;;;;;;0.55;0.20;;;12.90;99.90;;;;;;5089778;28;20036;-70
2022/07/06 03:13:39;;;;;;;0.63;0.20;;;12.90;99.90;;;;;;5073607;28;20036;-70
2022/07/06 03:16:05;;;;;;;1.05;0.30;;;12.80;99.90;;;;;;5064164;28;20040;-70
2022/07/06 03:18:31;;;;;;;1.13;0.20;;;12.80;99.90;;;;;;5105573;28;20479;-70
2022/07/06 03:20:56;;;;;;;0.10;0.10;;;12.70;99.90;;;;;;5104771;27;20118;-71
2022/07/06 03:23:22;;;;;;;0.80;0.20;;;12.70;99.90;;;;;;5086583;28;20055;-71
2022/07/06 03:25:48;;;;;;;0.77;0.20;;;12.70;99.90;;;;;;5063837;28;20071;-71
2022/07/06 03:28:14;;;;;;;0.10;0.10;;;12.70;99.90;;;;;;5085549;28;20117;-70
2022/07/06 03:30:39;;;;;;;2.03;0.22;;;12.70;99.90;;;;;;5065009;28;20065;-70
2022/07/06 03:33:05;;;;;;;0.60;0.00;;;12.60;99.90;;;;;;5088482;28;20039;-70
2022/07/06 03:35:31;;;;;;;0.30;0.10;;;12.60;99.90;;;;;;5089992;28;20091;-70
2022/07/06 03:37:56;;;;;;;0.10;0.10;;;12.60;99.90;;;;;;5069912;28;20063;-70
2022/07/06 03:40:22;;;;;;;0.35;0.20;;;12.60;99.90;;;;;;5085331;28;20048;-70
2022/07/06 03:42:48;;;;;;;0.43;0.20;;;12.50;99.90;;;;;;5064018;28;20043;-70
2022/07/06 03:45:14;;;;;;;0.20;0.10;;;12.50;99.90;;;;;;5086808;28;20097;-70
2022/07/06 03:47:39;;;;;;;0.88;0.20;;;12.50;99.90;;;;;;5085528;28;20044;-70
2022/07/06 03:50:06;;;;;;;0.20;0.08;;;12.40;99.90;;;;;;5085096;28;20048;-70
2022/07/06 03:52:31;;;;;;;0.08;0.00;;;12.40;99.90;;;;;;5071491;28;20039;-70
2022/07/06 03:54:57;;;;;;;0.17;0.03;;;12.30;99.90;;;;;;5085228;28;20048;-70
2022/07/06 03:57:23;;;;;;;0.10;0.10;;;12.30;99.90;;;;;;5060227;28;20067;-70
2022/07/06 03:59:48;;;;;;;0.20;0.10;;;12.30;99.90;;;;;;5067286;28;20051;-70
2022/07/06 04:02:14;;;;;;;0.00;0.00;;;12.30;99.90;;;;;;5083756;28;20028;-70
2022/07/06 04:04:40;;;;;;;0.65;0.10;;;12.30;99.90;;;;;;5047106;28;20096;-70
2022/07/06 04:07:05;;;;;;;0.55;0.10;;;12.30;99.90;;;;;;5086278;28;20135;-70
2022/07/06 04:09:31;;;;;;;0.95;0.30;;;12.30;99.90;;;;;;5085155;28;20067;-70
2022/07/06 04:11:57;;;;;;;0.77;0.22;;;12.40;99.90;;;;;;5085530;28;20070;-70
2022/07/06 04:14:22;;;;;;;0.30;0.20;;;12.40;99.90;;;;;;5085842;28;20402;-70
2022/07/06 04:16:48;;;;;;;0.95;0.17;;;12.50;99.90;;;;;;5085553;28;20130;-71
2022/07/06 04:19:14;;;;;;;1.35;0.38;;;12.50;99.90;;;;;;5084741;28;20057;-70
2022/07/06 04:21:40;;;;;;;1.55;0.30;;;12.60;99.90;;;;;;5086101;28;20475;-70
2022/07/06 04:24:05;;;;;;;2.65;0.50;;;12.70;99.90;;;;;;5062100;28;20044;-71
2022/07/06 04:26:31;;;;;;;1.70;0.40;;;12.80;99.90;;;;;;5085283;28;20044;-70
2022/07/06 04:28:57;;;;;;;1.38;0.22;;;12.80;99.90;;;;;;5064055;28;20051;-71
2022/07/06 04:31:22;;;;;;;1.73;0.40;;;12.90;99.90;;;;;;5060366;28;20052;-71
2022/07/06 04:33:48;;;;;;;1.30;0.40;;;13.00;99.90;;;;;;5069107;28;20047;-71
2022/07/06 04:36:14;;;;;;;2.65;0.70;;;13.00;99.90;;;;;;5087093;28;20059;-70
2022/07/06 04:38:40;;;;;;;0.82;0.30;;;13.10;99.90;;;;;;5086645;28;20138;-70
2022/07/06 04:41:05;;;;;;;3.42;0.60;;;13.10;99.90;;;;;;5065915;28;20091;-70
2022/07/06 04:43:31;;;;;;;1.85;0.50;;;13.10;99.90;;;;;;5086156;28;20046;-70
2022/07/06 04:45:57;;;;;;;2.88;0.70;;;13.10;99.90;;;;;;5069447;28;20035;-70
2022/07/06 04:48:22;;;;;;;1.85;0.70;;;13.10;99.90;;;;;;5050625;28;20097;-70
2022/07/06 04:50:48;;;;;;;1.10;0.35;;;13.10;99.90;;;;;;5080583;28;20406;-70
2022/07/06 04:53:14;;;;;;;1.23;0.30;;;13.10;99.90;;;;;;5099948;27;20077;-71
2022/07/06 04:55:40;;;;;;;1.98;0.40;;;13.10;99.90;;;;;;5083480;28;20032;-70
2022/07/06 04:58:05;;;;;;;1.02;0.30;;;13.10;99.90;;;;;;5088226;28;20093;-70
2022/07/06 05:00:31;;;;;;;0.82;0.30;;;13.10;99.90;;;;;;5068013;28;20043;-70
2022/07/06 05:02:57;;;;;;;0.28;0.10;;;13.20;99.90;;;;;;5064081;28;20507;-70
2022/07/06 05:05:22;;;;;;;0.40;0.25;;;13.30;99.90;;;;;;5087817;28;20489;-70
2022/07/06 05:07:48;;;;;;;0.30;0.10;;;13.30;99.90;;;;;;5081260;28;20048;-70
2022/07/06 05:10:14;;;;;;;2.05;0.10;;;13.40;99.90;;;;;;5081511;28;20501;-70
2022/07/06 05:12:40;;;;;;;1.15;0.10;;;13.50;99.90;;;;;;5058041;28;20037;-70
2022/07/06 05:15:07;;;;;;;0.55;0.13;;;13.60;99.90;;;;;;5065941;28;20036;-70
2022/07/06 05:17:32;;;;;;;0.25;0.08;;;13.60;99.90;;;;;;5080285;28;20040;-70
2022/07/06 05:19:58;;;;;;;0.20;0.10;;;13.70;99.90;;;;;;5080508;28;20531;-70
2022/07/06 05:22:24;;;;;;;1.48;0.20;;;13.80;99.90;;;;;;5082070;28;20466;-70
2022/07/06 05:24:50;;;;;;;0.40;0.20;;;13.80;99.90;;;;;;5060421;28;20468;-70
2022/07/06 05:27:16;;;;;;;0.70;0.10;;;13.90;99.90;;;;;;5078275;28;20561;-70
2022/07/06 05:29:42;;;;;;;0.55;0.22;;;13.90;99.90;;;;;;5078799;28;20044;-70
2022/07/06 05:32:08;;;;;;;2.03;0.38;;;13.80;99.90;;;;;;5065496;28;20470;-70
2022/07/06 05:34:33;;;;;;;0.95;0.40;;;13.80;99.90;;;;;;5055163;28;20036;-70
2022/07/06 05:36:59;;;;;;;1.58;0.40;;;13.90;99.90;;;;;;5061285;28;20089;-70
2022/07/06 05:39:25;;;;;;;1.63;0.45;;;13.90;99.90;;;;;;5097807;28;20044;-70
2022/07/06 05:41:50;;;;;;;0.73;0.30;;;13.80;99.90;;;;;;5081256;28;20071;-70
2022/07/06 05:44:16;;;;;;;0.98;0.30;;;13.90;99.90;;;;;;5084900;28;20123;-70
2022/07/06 05:46:42;;;;;;;1.77;0.40;;;13.80;99.90;;;;;;5082610;28;20410;-70
2022/07/06 05:51:51;;;;;;;0.77;0.25;;;13.90;99.90;;;;;;5083252;28;20530;-70
2022/07/06 05:54:17;;;;;;;1.60;0.30;;;14.00;99.90;;;;;;5058247;28;20072;-70
2022/07/06 05:56:43;;;;;;;0.95;0.30;;;14.00;99.90;;;;;;5081607;28;20043;-70
2022/07/06 05:59:08;;;;;;;0.98;0.38;;;14.10;99.90;;;;;;5081563;28;20123;-70
2022/07/06 06:01:34;;;;;;;0.68;0.20;;;14.20;99.90;;;;;;5078639;28;20072;-71
2022/07/06 06:04:00;;;;;;;0.65;0.28;;;14.20;99.90;;;;;;5076442;28;20101;-71
2022/07/06 06:06:26;;;;;;;1.00;0.10;;;14.20;99.90;;;;;;5057423;28;20444;-68
2022/07/06 06:08:52;;;;;;;1.42;0.30;;;14.20;99.90;;;;;;5077926;28;20062;-68
2022/07/06 06:11:18;;;;;;;2.65;0.63;;;14.20;99.90;;;;;;5081676;28;20049;-68
2022/07/06 06:13:43;;;;;;;2.10;0.50;;;14.00;99.90;;;;;;5081968;28;20050;-70
2022/07/06 06:16:10;;;;;;;0.75;0.30;;;13.90;99.90;;;;;;5080188;28;20059;-70
2022/07/06 06:18:35;;;;;;;0.52;0.20;;;14.00;99.90;;;;;;5075255;28;20047;-70
2022/07/06 06:21:01;;;;;;;0.45;0.20;;;14.00;99.90;;;;;;5082252;28;20036;-70
2022/07/06 06:23:27;;;;;;;0.30;0.20;;;14.00;99.90;;;;;;5070209;28;20116;-69
2022/07/06 06:25:53;;;;;;;0.30;0.20;;;14.10;99.90;;;;;;5089824;28;20506;-69
2022/07/06 06:28:19;;;;;;;0.70;0.22;;;14.10;99.90;;;;;;5091856;28;20050;-70
2022/07/06 06:30:44;;;;;;;0.80;0.30;;;14.10;99.90;;;;;;5071843;28;20052;-69
2022/07/06 06:33:12;;;;;;;1.08;0.20;;;14.10;99.90;;;;;;5085412;28;20044;-69
2022/07/06 06:35:49;;;;;;;0.60;0.20;;;14.10;99.90;;;;;;5075131;28;20062;-70
2022/07/06 06:38:16;;;;;;;1.25;0.45;;;14.10;99.90;;;;;;5076972;28;20040;-70
2022/07/06 06:40:42;;;;;;;2.00;0.35;;;14.00;99.90;;;;;;5091665;28;20048;-70
2022/07/06 06:43:08;;;;;;;1.05;0.38;;;14.00;99.90;;;;;;5091530;28;20158;-70
2022/07/06 06:45:34;;;;;;;;;;;14.10;99.90;;;;;;5091376;28;20349;-71
2022/07/06 06:48:00;;;;;;;0.95;0.25;;;14.10;99.90;;;;;;5074872;28;19923;-70
2022/07/06 06:50:25;;;;;;;1.20;0.40;;;14.10;99.90;;;;;;5074032;28;20055;-70
2022/07/06 06:52:51;;;;;;;2.25;0.40;;;14.10;99.90;;;;;;5091924;28;20052;-70
2022/07/06 06:55:18;;;;;;;2.63;0.40;;;14.10;99.90;;;;;;5091178;28;20492;-70
2022/07/06 06:57:44;;;;;;;1.13;0.40;;;14.20;99.90;;;;;;5091763;28;20040;-70
2022/07/06 07:00:10;;;;;;;1.05;0.40;;;14.30;99.90;;;;;;5090287;28;20478;-69
2022/07/06 07:02:36;;;;;;;;;;;14.50;99.90;;;;;;5091860;28;20407;-70
2022/07/06 07:05:02;;;;;;;2.80;0.38;;;14.60;99.90;;;;;;5108086;28;19916;-70
2022/07/06 07:07:28;;;;;;;1.67;0.32;;;14.80;99.90;;;;;;5074493;28;20056;-70
2022/07/06 07:09:54;;;;;;;1.23;0.30;;;15.00;99.90;;;;;;5091316;28;20059;-70
2022/07/06 07:12:20;;;;;;;6.47;0.63;;;15.00;99.90;;;;;;5091438;28;20113;-69
2022/07/06 07:14:45;;;;;;;3.03;0.65;;;15.00;99.90;;;;;;5083305;28;20044;-69
2022/07/06 07:17:12;;;;;;;1.17;0.40;;;15.00;99.90;;;;;;5091034;28;20486;-70
2022/07/06 07:19:38;;;;;;;1.33;0.55;;;15.00;99.90;;;;;;5074376;28;20080;-70
2022/07/06 07:22:04;;;;;;;2.33;0.73;;;14.90;99.90;;;;;;5090942;28;20039;-69
2022/07/06 07:24:30;;;;;;;3.10;0.90;;;14.90;99.90;;;;;;5074305;28;20119;-69
2022/07/06 07:26:55;;;;;;;2.30;0.80;;;14.80;99.90;;;;;;5091194;28;20043;-69
2022/07/06 07:29:21;;;;;;;4.38;1.23;;;14.80;99.90;;;;;;5064498;28;20044;-70
2022/07/06 07:31:47;;;;;;;3.47;0.75;;;14.80;99.90;;;;;;5071309;28;20040;-70
2022/07/06 07:34:13;;;;;;;1.15;0.40;;;15.00;99.90;;;;;;5090708;28;20039;-70
2022/07/06 07:36:39;;;;;;;0.75;0.30;;;15.30;99.90;;;;;;5090419;28;20097;-69
2022/07/06 07:39:04;;;;;;;3.65;0.80;;;15.60;99.90;;;;;;5069888;28;20071;-70
2022/07/06 07:41:30;;;;;;;2.80;0.45;;;15.90;99.90;;;;;;5089673;28;20059;-70
2022/07/06 07:43:56;;;;;;;3.13;0.60;;;16.20;99.90;;;;;;5073920;28;20051;-70
2022/07/06 07:46:21;;;;;;;2.60;0.60;;;16.30;99.90;;;;;;5074318;28;20040;-70
2022/07/06 07:48:47;;;;;;;2.92;0.40;;;16.60;99.90;;;;;;5090659;28;20479;-70
2022/07/06 07:51:13;;;;;;;2.17;0.60;;;16.90;99.90;;;;;;5074136;28;20035;-70
2022/07/06 07:53:39;;;;;;;2.83;0.70;;;17.00;99.90;;;;;;5073899;28;20110;-70
2022/07/06 07:56:05;;;;;;;1.83;0.40;;;17.00;99.90;;;;;;5079957;28;20028;-70
2022/07/06 07:58:30;;;;;;;2.45;0.52;;;17.30;99.90;;;;;;5090897;28;20044;-70
2022/07/06 08:00:56;;;;;;;2.45;0.30;;;17.30;99.90;;;;;;5090689;28;20039;-70
2022/07/06 08:03:22;;;;;;;1.48;0.55;;;17.30;99.90;;;;;;5073519;28;20135;-72
2022/07/06 08:05:48;;;;;;;2.42;0.43;;;17.10;99.90;;;;;;5074073;28;20079;-70
2022/07/06 08:08:14;;;;;;;0.77;0.28;;;17.00;99.90;;;;;;5076319;28;20147;-70
2022/07/06 08:10:40;;;;;;;2.47;0.52;;;17.00;99.90;;;;;;5090608;28;20386;-69
2022/07/06 08:13:07;;;;;;;2.83;0.52;;;17.00;99.90;;;;;;5090558;28;20097;-70
2022/07/06 08:15:33;;;;;;;1.50;0.43;;;16.90;99.90;;;;;;5090453;28;20059;-70
2022/07/06 08:17:59;;;;;;;0.57;0.20;;;16.90;99.90;;;;;;5089807;28;20075;-70
2022/07/06 08:20:24;;;;;;;2.30;0.40;;;16.90;99.90;;;;;;5072826;28;20075;-70
2022/07/06 08:22:50;;;;;;;3.83;0.52;;;16.80;99.90;;;;;;5090208;28;20067;-70
2022/07/06 08:25:17;;;;;;;2.00;0.50;;;16.70;99.90;;;;;;5091496;28;20119;-70
2022/07/06 08:27:43;;;;;;;1.48;0.20;;;16.90;99.90;;;;;;5088873;28;20044;-70
2022/07/06 08:30:10;;;;;;;0.93;0.30;;;17.20;99.90;;;;;;5073452;28;20444;-70
2022/07/06 08:32:40;;;;;;;1.90;0.70;;;17.40;99.90;;;;;;5089559;28;20040;-70
2022/07/06 08:35:07;;;;;;;4.00;0.60;;;17.60;99.90;;;;;;5087219;28;20419;-70
2022/07/06 08:37:33;;;;;;;1.52;0.50;;;17.60;99.90;;;;;;5090744;28;20048;-70
2022/07/06 08:39:58;;;;;;;;;;;17.50;99.90;;;;;;5090142;28;20381;-70
2022/07/06 08:42:32;;;;;;;3.15;0.47;;;17.60;99.90;;;;;;5090098;28;19958;-70
2022/07/06 08:45:03;;;;;;;1.73;0.30;;;17.60;99.90;;;;;;5091098;28;20027;-70
2022/07/06 08:47:30;;;;;;;2.15;0.38;;;17.70;99.90;;;;;;5073230;28;20042;-70
2022/07/06 08:49:56;;;;;;;1.73;0.30;;;17.60;99.90;;;;;;5084243;28;20080;-70
2022/07/06 08:52:23;;;;;;;2.08;0.43;;;17.60;99.90;;;;;;5071523;28;20039;-70
2022/07/06 08:54:49;;;;;;;1.45;0.40;;;17.70;99.90;;;;;;5089796;28;20043;-70
2022/07/06 08:57:15;;;;;;;;;;;17.70;99.90;;;;;;5090567;28;20322;-70
2022/07/06 08:59:40;;;;;;;1.35;0.40;;;18.10;99.90;;;;;;5094455;28;19993;-70
2022/07/06 09:02:06;;;;;;;;;;;18.10;99.90;;;;;;5073385;28;20974;-70
2022/07/06 09:04:36;;;;;;;0.90;0.35;;;17.60;99.90;;;;;;5088380;28;19916;-70
2022/07/06 09:07:02;;;;;;;2.80;0.73;;;17.40;99.90;;;;;;5090022;28;20080;-70
2022/07/06 09:09:32;;;;;;;2.47;0.82;;;17.10;99.90;;;;;;5077093;28;20074;-70
2022/07/06 09:11:58;;;;;;;2.97;0.70;;;16.90;99.90;;;;;;5072865;28;20472;-70
2022/07/06 09:14:24;;;;;;;;;;;16.70;99.90;;;;;;5089952;28;20437;-70
2022/07/06 09:17:03;;;;;;;1.58;0.55;;;16.60;99.90;;;;;;5089553;28;19999;-70
2022/07/06 09:19:30;;;;;;;2.72;0.80;;;16.70;99.90;;;;;;5085862;28;20127;-70
2022/07/06 09:21:56;;;;;;;2.50;0.60;;;16.70;99.90;;;;;;5083132;28;20043;-70
2022/07/06 09:24:22;;;;;;;2.50;0.63;;;17.00;99.90;;;;;;5089657;28;20165;-70
2022/07/06 09:26:48;;;;;;;2.50;0.50;;;17.50;99.90;;;;;;5089107;28;20043;-70
2022/07/06 09:29:13;;;;;;;;;;;18.00;99.90;;;;;;5089305;28;20403;-70
2022/07/06 09:31:40;;;;;;;1.42;0.40;;;18.40;99.90;;;;;;5088992;28;19946;-70
2022/07/06 09:34:09;;;;;;;2.67;0.73;;;18.80;99.90;;;;;;5088662;28;20042;-70
2022/07/06 09:36:39;;;;;;;1.70;0.60;;;18.60;99.90;;;;;;5072332;28;20047;-70
2022/07/06 09:39:20;;;;;;;2.20;0.50;;;18.40;99.90;;;;;;5089265;28;20036;-70
2022/07/06 09:41:51;;;;;;;1.60;0.40;;;18.10;99.90;;;;;;5072381;28;20044;-70
2022/07/06 09:44:26;;;;;;;1.73;0.38;;;18.20;99.90;;;;;;5089025;28;20040;-70
2022/07/06 09:46:52;;;;;;;3.03;0.43;;;18.40;99.90;;;;;;5089128;28;20119;-70
2022/07/06 09:49:22;;;;;;;1.50;0.30;;;18.10;99.90;;;;;;5071615;28;20036;-70
2022/07/06 09:51:50;;;;;;;1.30;0.30;;;17.80;99.90;;;;;;5067840;28;20075;-70
2022/07/06 09:54:16;;;;;;;2.00;0.50;;;17.60;99.90;;;;;;5072392;28;20124;-71
2022/07/06 09:56:47;;;;;;;2.00;0.43;;;17.50;99.90;;;;;;5072247;28;20590;-70
2022/07/06 09:59:15;;;;;;;1.85;0.63;;;17.60;99.90;;;;;;5089114;28;20098;-70
2022/07/06 10:01:42;;;;;;;1.05;0.32;;;17.80;99.90;;;;;;5091521;28;20058;-70
2022/07/06 10:04:12;;;;;;;1.70;0.50;;;18.00;99.90;;;;;;5090774;28;20170;-70
2022/07/06 10:06:38;;;;;;;3.15;0.70;;;18.00;99.90;;;;;;5079157;28;20514;-70
2022/07/06 10:09:09;;;;;;;2.13;0.50;;;17.80;99.90;;;;;;5113087;28;20124;-70
2022/07/06 10:11:39;;;;;;;1.35;0.60;;;17.70;99.90;;;;;;5111015;28;20047;-71
2022/07/06 10:14:07;;;;;;;2.25;0.30;;;17.80;99.90;;;;;;5103851;28;20036;-70
2022/07/06 10:16:35;;;;;;;0.47;0.22;;;17.70;99.90;;;;;;5110652;28;20119;-71
2022/07/06 10:19:04;;;;;;;1.80;0.40;;;17.80;99.90;;;;;;5104649;28;20055;-71
2022/07/06 10:21:30;;;;;;;1.88;0.60;;;17.80;99.90;;;;;;5095703;28;20043;-70
2022/07/06 10:23:59;;;;;;;;;;;18.00;99.90;;;;;;5108006;28;20059;-70
2022/07/06 10:26:25;;;;;;;1.30;0.43;;;18.20;99.90;;;;;;5112907;28;19922;-70
2022/07/06 10:28:51;;;;;;;;;;;18.50;99.90;;;;;;5066278;28;20047;-70
2022/07/06 10:31:19;;;;;;;1.05;0.25;;;18.80;99.90;;;;;;5085545;28;19953;-70
2022/07/06 10:33:45;;;;;;;1.85;0.40;;;19.30;99.90;;;;;;5095385;28;20039;-70
2022/07/06 10:36:12;;;;;;;0.82;0.50;;;19.20;99.50;;;;;;5114034;28;20403;-70
2022/07/06 10:38:38;;;;;;;1.75;0.63;;;19.10;98.80;;;;;;5112322;28;20055;-70
2022/07/06 10:41:05;;;;;;;;;;;19.00;98.10;;;;;;5114104;28;20391;-70
2022/07/06 10:43:44;;;;;;;1.95;0.40;;;19.10;97.70;;;;;;5107134;28;19920;-70
2022/07/06 10:46:16;;;;;;;2.67;0.85;;;19.20;98.10;;;;;;5085188;28;20522;-70
2022/07/06 10:48:43;;;;;;;2.53;0.88;;;19.00;98.30;;;;;;5081430;28;20112;-70
2022/07/06 10:51:11;;;;;;;3.20;0.65;;;18.70;97.50;;;;;;5100387;28;20035;-70
2022/07/06 10:53:39;;;;;;;3.35;0.55;;;18.70;98.40;;;;;;5100338;28;20122;-70
2022/07/06 10:56:10;;;;;;;2.50;0.50;;;18.80;97.70;;;;;;5111987;28;20036;-70
2022/07/06 10:58:51;;;;;;;3.08;0.70;;;18.60;98.10;;;;;;5099952;28;20609;-70
2022/07/06 11:01:18;;;;;;;3.03;0.50;;;18.20;96.90;;;;;;5080049;28;20071;-70
2022/07/06 11:03:43;;;;;;;0.90;0.30;;;18.10;98.00;;;;;;5085189;28;20089;-70
2022/07/06 11:06:09;;;;;;;;;;;18.70;98.70;;;;;;5108834;28;20039;-70
2022/07/06 11:08:56;;;;;;;1.08;0.40;;;19.50;98.50;;;;;;5099644;28;20409;-71
2022/07/06 11:11:31;;;;;;;1.58;0.50;;;20.10;96.70;;;;;;5095633;28;20143;-70
2022/07/06 11:14:17;;;;;;;2.17;0.50;;;20.50;95.50;;;;;;5086152;28;20036;-71
2022/07/06 11:16:48;;;;;;;1.17;0.40;;;20.30;94.50;;;;;;5087680;28;20035;-70
2022/07/06 11:19:19;;;;;;;1.80;0.32;;;19.90;95.00;;;;;;5091384;28;20118;-71
2022/07/06 11:21:49;;;;;;;1.27;0.30;;;19.70;95.50;;;;;;5086981;28;20055;-70
2022/07/06 11:24:36;;;;;;;1.67;0.50;;;19.50;95.50;;;;;;5081758;28;20052;-71
2022/07/06 11:27:03;;;;;;;1.98;0.50;;;19.40;95.70;;;;;;5100712;28;20602;-71
2022/07/06 11:29:30;;;;;;;2.58;0.50;;;19.80;95.80;;;;;;5084523;28;20122;-71
2022/07/06 11:31:58;;;;;;;0.95;0.40;;;19.60;94.70;;;;;;5090527;28;20536;-71
2022/07/06 11:34:35;;;;;;;0.82;0.30;;;20.10;96.40;;;;;;5079604;28;20406;-71
2022/07/06 11:37:07;;;;;;;1.50;0.60;;;20.60;94.00;;;;;;5106715;28;20490;-71
2022/07/06 11:39:35;;;;;;;1.77;0.40;;;20.60;94.30;;;;;;5086862;28;20070;-72
2022/07/06 11:42:03;;;;;;;1.88;0.45;;;20.40;94.10;;;;;;5085848;28;20039;-71
2022/07/06 11:44:29;;;;;;;0.60;0.22;;;20.40;93.50;;;;;;5094349;28;20501;-71
2022/07/06 11:47:00;;;;;;;0.88;0.40;;;20.80;92.60;;;;;;5089247;28;20135;-71
2022/07/06 11:49:26;;;;;;;1.10;0.25;;;21.00;91.80;;;;;;5083125;28;20533;-71
2022/07/06 11:51:52;;;;;;;1.80;0.30;;;21.10;92.50;;;;;;5090499;28;20047;-71
2022/07/06 11:54:18;;;;;;;;;;;20.80;92.20;;;;;;5084458;28;20414;-71
2022/07/06 11:56:48;;;;;;;1.10;0.40;;;20.80;93.00;;;;;;5063830;28;19920;-71
2022/07/06 11:59:14;;;;;;;1.23;0.40;;;20.80;93.70;;;;;;5081480;28;20078;-71
2022/07/06 12:01:43;;;;;;;1.35;0.30;;;20.50;93.60;;;;;;5083659;28;20051;-71
2022/07/06 12:04:10;;;;;;;1.55;0.38;;;20.40;93.40;;;;;;5049901;28;20148;-72
2022/07/06 12:06:36;;;;;;;0.98;0.25;;;20.70;93.80;;;;;;5086743;28;20134;-72
2022/07/06 12:09:04;;;;;;;1.33;0.45;;;21.00;92.90;;;;;;5063708;28;20135;-71
2022/07/06 12:11:32;;;;;;;1.50;0.52;;;20.80;92.70;;;;;;5070781;28;20055;-71
2022/07/06 12:14:03;;;;;;;1.30;0.40;;;20.70;93.30;;;;;;5085483;28;20055;-71
2022/07/06 12:16:35;;;;;;;2.10;0.40;;;20.30;93.20;;;;;;5102891;28;20039;-71
2022/07/06 12:19:02;;;;;;;2.13;0.55;;;20.50;93.00;;;;;;5084244;28;20043;-71
2022/07/06 12:21:28;;;;;;;1.23;0.45;;;20.40;93.30;;;;;;5085725;28;20047;-72
2022/07/06 12:23:55;;;;;;;0.93;0.40;;;20.30;93.60;;;;;;5106593;28;20119;-71
2022/07/06 12:26:25;;;;;;;0.65;0.30;;;20.20;94.00;;;;;;5106399;28;20055;-70
2022/07/06 12:29:09;;;;;;;1.58;0.43;;;20.10;93.80;;;;;;5085766;28;20547;-70
2022/07/06 12:31:41;;;;;;;1.58;0.50;;;20.00;94.30;;;;;;5101976;27;20046;-71
2022/07/06 12:34:14;;;;;;;1.52;0.63;;;19.90;94.20;;;;;;5067709;28;20370;-70
2022/07/06 12:36:47;;;;;;;1.30;0.43;;;20.10;94.40;;;;;;5084795;28;20460;-71
2022/07/06 12:39:14;;;;;;;1.10;0.30;;;20.50;94.80;;;;;;5084641;28;20115;-70
2022/07/06 12:41:45;;;;;;;0.75;0.22;;;20.80;94.20;;;;;;5084958;28;20487;-70
2022/07/06 12:44:11;;;;;;;2.60;0.73;;;21.10;93.00;;;;;;5085874;28;20158;-71
2022/07/06 12:46:39;;;;;;;1.30;0.55;;;21.20;93.30;;;;;;5083421;28;20051;-71
2022/07/06 12:49:19;;;;;;;1.05;0.17;;;20.70;93.50;;;;;;5068073;28;20039;-71
2022/07/06 12:51:54;;;;;;;2.60;0.57;;;20.50;93.70;;;;;;5099435;28;20131;-71
2022/07/06 12:54:22;;;;;;;1.00;0.30;;;20.10;94.50;;;;;;5082103;28;20120;-70